sensor_id;sensor_type;location;lat;lon;timestamp;P1;durP1;ratioP1;P2;durP2;ratioP2
14736;SDS011;7459;53.590;10.062;2023-01-08T00:02:22;4.40;;;1.58;;
14736;SDS011;7459;53.590;10.062;2023-01-08T00:04:48;3.80;;;1.50;;
14736;SDS011;7459;53.590;10.062;2023-01-08T00:07:14;4.20;;;1.80;;
14736;SDS011;7459;53.590;10.062;2023-01-08T00:09:39;3.90;;;1.60;;
14736;SDS011;7459;53.590;10.062;2023-01-08T00:12:05;3.63;;;1.75;;
14736;SDS011;7459;53.590;10.062;2023-01-08T00:14:31;5.10;;;1.73;;
14736;SDS011;7459;53.590;10.062;2023-01-08T00:16:56;7.30;;;1.52;;
14736;SDS011;7459;53.590;10.062;2023-01-08T00:19:22;4.03;;;1.77;;
14736;SDS011;7459;53.590;10.062;2023-01-08T00:21:48;4.60;;;2.10;;
14736;SDS011;7459;53.590;10.062;2023-01-08T00:24:13;5.73;;;2.00;;
14736;SDS011;7459;53.590;10.062;2023-01-08T00:26:39;5.20;;;2.00;;
14736;SDS011;7459;53.590;10.062;2023-01-08T00:29:05;4.47;;;1.63;;
14736;SDS011;7459;53.590;10.062;2023-01-08T00:31:30;5.00;;;2.03;;
14736;SDS011;7459;53.590;10.062;2023-01-08T00:33:56;3.47;;;1.53;;
14736;SDS011;7459;53.590;10.062;2023-01-08T00:36:22;4.72;;;2.05;;
14736;SDS011;7459;53.590;10.062;2023-01-08T00:38:48;4.27;;;1.93;;
14736;SDS011;7459;53.590;10.062;2023-01-08T00:41:13;4.63;;;2.08;;
14736;SDS011;7459;53.590;10.062;2023-01-08T00:43:40;5.75;;;2.30;;
14736;SDS011;7459;53.590;10.062;2023-01-08T00:46:06;5.32;;;2.20;;
14736;SDS011;7459;53.590;10.062;2023-01-08T00:48:32;4.28;;;1.98;;
14736;SDS011;7459;53.590;10.062;2023-01-08T00:51:01;5.03;;;1.90;;
14736;SDS011;7459;53.590;10.062;2023-01-08T00:53:27;5.40;;;1.83;;
14736;SDS011;7459;53.590;10.062;2023-01-08T00:56:00;4.28;;;2.05;;
14736;SDS011;7459;53.590;10.062;2023-01-08T00:58:28;4.68;;;2.03;;
14736;SDS011;7459;53.590;10.062;2023-01-08T01:00:54;5.43;;;1.98;;
14736;SDS011;7459;53.590;10.062;2023-01-08T01:03:20;5.50;;;2.00;;
14736;SDS011;7459;53.590;10.062;2023-01-08T01:05:46;7.20;;;2.05;;
14736;SDS011;7459;53.590;10.062;2023-01-08T01:08:13;7.10;;;2.33;;
14736;SDS011;7459;53.590;10.062;2023-01-08T01:10:39;6.23;;;2.40;;
14736;SDS011;7459;53.590;10.062;2023-01-08T01:13:04;5.38;;;2.10;;
14736;SDS011;7459;53.590;10.062;2023-01-08T01:15:30;4.30;;;2.00;;
14736;SDS011;7459;53.590;10.062;2023-01-08T01:17:56;5.88;;;1.95;;
14736;SDS011;7459;53.590;10.062;2023-01-08T01:20:22;4.60;;;2.00;;
14736;SDS011;7459;53.590;10.062;2023-01-08T01:22:48;5.57;;;1.90;;
14736;SDS011;7459;53.590;10.062;2023-01-08T01:25:14;4.07;;;1.92;;
14736;SDS011;7459;53.590;10.062;2023-01-08T01:27:39;4.30;;;1.73;;
14736;SDS011;7459;53.590;10.062;2023-01-08T01:30:05;5.82;;;1.80;;
14736;SDS011;7459;53.590;10.062;2023-01-08T01:32:32;3.83;;;1.80;;
14736;SDS011;7459;53.590;10.062;2023-01-08T01:34:57;5.88;;;1.83;;
14736;SDS011;7459;53.590;10.062;2023-01-08T01:37:23;4.60;;;2.17;;
14736;SDS011;7459;53.590;10.062;2023-01-08T01:39:49;3.80;;;1.70;;
14736;SDS011;7459;53.590;10.062;2023-01-08T01:42:16;5.80;;;1.67;;
14736;SDS011;7459;53.590;10.062;2023-01-08T01:45:11;4.35;;;1.45;;
14736;SDS011;7459;53.590;10.062;2023-01-08T01:47:46;4.88;;;1.85;;
14736;SDS011;7459;53.590;10.062;2023-01-08T01:53:10;5.07;;;1.77;;
14736;SDS011;7459;53.590;10.062;2023-01-08T01:55:39;3.63;;;1.73;;
14736;SDS011;7459;53.590;10.062;2023-01-08T01:58:10;5.22;;;1.63;;
14736;SDS011;7459;53.590;10.062;2023-01-08T02:00:40;4.78;;;1.90;;
14736;SDS011;7459;53.590;10.062;2023-01-08T02:03:07;3.78;;;1.50;;
14736;SDS011;7459;53.590;10.062;2023-01-08T02:05:46;5.82;;;2.13;;
14736;SDS011;7459;53.590;10.062;2023-01-08T02:11:29;8.10;;;2.10;;
14736;SDS011;7459;53.590;10.062;2023-01-08T02:14:36;3.30;;;1.33;;
14736;SDS011;7459;53.590;10.062;2023-01-08T02:17:30;4.40;;;1.88;;
14736;SDS011;7459;53.590;10.062;2023-01-08T02:20:01;4.13;;;1.95;;
14736;SDS011;7459;53.590;10.062;2023-01-08T02:28:36;4.05;;;1.50;;
14736;SDS011;7459;53.590;10.062;2023-01-08T02:31:09;4.70;;;1.55;;
14736;SDS011;7459;53.590;10.062;2023-01-08T02:33:36;5.05;;;1.65;;
14736;SDS011;7459;53.590;10.062;2023-01-08T02:36:45;6.63;;;2.20;;
14736;SDS011;7459;53.590;10.062;2023-01-08T02:39:08;5.65;;;2.03;;
14736;SDS011;7459;53.590;10.062;2023-01-08T02:47:54;5.63;;;2.17;;
14736;SDS011;7459;53.590;10.062;2023-01-08T02:50:31;4.23;;;1.90;;
14736;SDS011;7459;53.590;10.062;2023-01-08T02:53:21;4.40;;;1.98;;
14736;SDS011;7459;53.590;10.062;2023-01-08T02:55:55;4.60;;;2.22;;
14736;SDS011;7459;53.590;10.062;2023-01-08T02:58:25;4.50;;;1.77;;
14736;SDS011;7459;53.590;10.062;2023-01-08T03:00:54;4.55;;;1.83;;
14736;SDS011;7459;53.590;10.062;2023-01-08T03:03:24;4.03;;;1.90;;
14736;SDS011;7459;53.590;10.062;2023-01-08T03:05:55;4.32;;;1.80;;
14736;SDS011;7459;53.590;10.062;2023-01-08T03:08:25;4.95;;;1.92;;
14736;SDS011;7459;53.590;10.062;2023-01-08T03:10:54;4.70;;;1.92;;
14736;SDS011;7459;53.590;10.062;2023-01-08T03:13:29;4.38;;;1.60;;
14736;SDS011;7459;53.590;10.062;2023-01-08T03:16:28;4.63;;;1.67;;
14736;SDS011;7459;53.590;10.062;2023-01-08T03:19:48;4.68;;;1.67;;
14736;SDS011;7459;53.590;10.062;2023-01-08T03:22:18;4.95;;;2.10;;
14736;SDS011;7459;53.590;10.062;2023-01-08T03:24:46;4.70;;;1.92;;
14736;SDS011;7459;53.590;10.062;2023-01-08T03:27:19;4.40;;;2.05;;
14736;SDS011;7459;53.590;10.062;2023-01-08T03:29:50;4.17;;;1.63;;
14736;SDS011;7459;53.590;10.062;2023-01-08T03:32:18;5.25;;;2.00;;
14736;SDS011;7459;53.590;10.062;2023-01-08T03:34:46;4.15;;;1.90;;
14736;SDS011;7459;53.590;10.062;2023-01-08T03:37:16;4.78;;;1.77;;
14736;SDS011;7459;53.590;10.062;2023-01-08T03:39:51;4.18;;;1.70;;
14736;SDS011;7459;53.590;10.062;2023-01-08T03:42:35;3.63;;;1.67;;
14736;SDS011;7459;53.590;10.062;2023-01-08T03:45:01;5.88;;;1.92;;
14736;SDS011;7459;53.590;10.062;2023-01-08T03:47:30;4.60;;;2.10;;
14736;SDS011;7459;53.590;10.062;2023-01-08T03:50:02;4.43;;;1.90;;
14736;SDS011;7459;53.590;10.062;2023-01-08T03:52:32;4.87;;;1.80;;
14736;SDS011;7459;53.590;10.062;2023-01-08T03:54:58;3.60;;;1.48;;
14736;SDS011;7459;53.590;10.062;2023-01-08T03:57:24;5.27;;;1.80;;
14736;SDS011;7459;53.590;10.062;2023-01-08T03:59:49;4.90;;;1.92;;
14736;SDS011;7459;53.590;10.062;2023-01-08T04:02:15;6.03;;;2.17;;
14736;SDS011;7459;53.590;10.062;2023-01-08T04:04:41;4.50;;;1.60;;
14736;SDS011;7459;53.590;10.062;2023-01-08T04:07:09;4.15;;;1.50;;
14736;SDS011;7459;53.590;10.062;2023-01-08T04:09:38;4.75;;;1.90;;
14736;SDS011;7459;53.590;10.062;2023-01-08T04:12:03;5.00;;;1.38;;
14736;SDS011;7459;53.590;10.062;2023-01-08T04:14:29;5.35;;;1.90;;
14736;SDS011;7459;53.590;10.062;2023-01-08T04:16:55;5.00;;;1.60;;
14736;SDS011;7459;53.590;10.062;2023-01-08T04:19:21;3.97;;;1.67;;
14736;SDS011;7459;53.590;10.062;2023-01-08T04:21:48;5.13;;;2.20;;
14736;SDS011;7459;53.590;10.062;2023-01-08T04:24:15;4.40;;;1.88;;
14736;SDS011;7459;53.590;10.062;2023-01-08T04:26:41;4.38;;;1.95;;
14736;SDS011;7459;53.590;10.062;2023-01-08T04:29:07;4.38;;;2.00;;
14736;SDS011;7459;53.590;10.062;2023-01-08T04:31:33;3.53;;;1.50;;
14736;SDS011;7459;53.590;10.062;2023-01-08T04:33:58;5.13;;;2.03;;
14736;SDS011;7459;53.590;10.062;2023-01-08T04:36:24;4.27;;;1.40;;
14736;SDS011;7459;53.590;10.062;2023-01-08T04:38:50;4.93;;;1.47;;
14736;SDS011;7459;53.590;10.062;2023-01-08T04:41:15;4.43;;;1.92;;
14736;SDS011;7459;53.590;10.062;2023-01-08T04:43:42;4.68;;;1.80;;
14736;SDS011;7459;53.590;10.062;2023-01-08T04:46:08;3.92;;;1.67;;
14736;SDS011;7459;53.590;10.062;2023-01-08T04:48:34;4.37;;;1.67;;
14736;SDS011;7459;53.590;10.062;2023-01-08T04:51:01;3.55;;;1.60;;
14736;SDS011;7459;53.590;10.062;2023-01-08T04:53:29;4.95;;;2.03;;
14736;SDS011;7459;53.590;10.062;2023-01-08T04:56:02;4.60;;;1.83;;
14736;SDS011;7459;53.590;10.062;2023-01-08T04:58:34;4.55;;;1.75;;
14736;SDS011;7459;53.590;10.062;2023-01-08T05:01:08;4.37;;;1.77;;
14736;SDS011;7459;53.590;10.062;2023-01-08T05:03:38;5.45;;;1.90;;
14736;SDS011;7459;53.590;10.062;2023-01-08T05:06:05;4.38;;;1.63;;
14736;SDS011;7459;53.590;10.062;2023-01-08T05:08:31;3.60;;;1.65;;
14736;SDS011;7459;53.590;10.062;2023-01-08T05:10:58;5.00;;;1.47;;
14736;SDS011;7459;53.590;10.062;2023-01-08T05:13:24;3.88;;;1.77;;
14736;SDS011;7459;53.590;10.062;2023-01-08T05:15:49;4.30;;;1.88;;
14736;SDS011;7459;53.590;10.062;2023-01-08T05:18:15;5.37;;;1.77;;
14736;SDS011;7459;53.590;10.062;2023-01-08T05:20:41;4.30;;;1.80;;
14736;SDS011;7459;53.590;10.062;2023-01-08T05:23:07;4.23;;;1.83;;
14736;SDS011;7459;53.590;10.062;2023-01-08T05:25:35;4.30;;;1.88;;
14736;SDS011;7459;53.590;10.062;2023-01-08T05:28:01;4.03;;;1.40;;
14736;SDS011;7459;53.590;10.062;2023-01-08T05:30:27;4.10;;;1.80;;
14736;SDS011;7459;53.590;10.062;2023-01-08T05:32:52;3.80;;;1.63;;
14736;SDS011;7459;53.590;10.062;2023-01-08T05:35:18;3.80;;;1.58;;
14736;SDS011;7459;53.590;10.062;2023-01-08T05:37:44;4.67;;;1.63;;
14736;SDS011;7459;53.590;10.062;2023-01-08T05:40:09;5.10;;;2.00;;
14736;SDS011;7459;53.590;10.062;2023-01-08T05:42:36;4.00;;;1.40;;
14736;SDS011;7459;53.590;10.062;2023-01-08T05:45:05;4.00;;;1.60;;
14736;SDS011;7459;53.590;10.062;2023-01-08T05:47:32;3.90;;;1.13;;
14736;SDS011;7459;53.590;10.062;2023-01-08T05:49:58;4.72;;;1.75;;
14736;SDS011;7459;53.590;10.062;2023-01-08T05:52:24;4.45;;;1.45;;
14736;SDS011;7459;53.590;10.062;2023-01-08T05:54:50;4.30;;;1.70;;
14736;SDS011;7459;53.590;10.062;2023-01-08T05:57:16;4.40;;;1.45;;
14736;SDS011;7459;53.590;10.062;2023-01-08T05:59:41;3.67;;;1.45;;
14736;SDS011;7459;53.590;10.062;2023-01-08T06:02:07;3.43;;;1.57;;
14736;SDS011;7459;53.590;10.062;2023-01-08T06:04:33;4.28;;;1.85;;
14736;SDS011;7459;53.590;10.062;2023-01-08T06:06:59;4.77;;;1.80;;
14736;SDS011;7459;53.590;10.062;2023-01-08T06:09:24;3.88;;;1.42;;
14736;SDS011;7459;53.590;10.062;2023-01-08T06:11:50;3.27;;;1.53;;
14736;SDS011;7459;53.590;10.062;2023-01-08T06:14:17;4.18;;;1.75;;
14736;SDS011;7459;53.590;10.062;2023-01-08T06:16:43;3.95;;;1.50;;
14736;SDS011;7459;53.590;10.062;2023-01-08T06:19:11;4.25;;;2.00;;
14736;SDS011;7459;53.590;10.062;2023-01-08T06:21:37;5.55;;;2.03;;
14736;SDS011;7459;53.590;10.062;2023-01-08T06:24:03;3.90;;;1.70;;
14736;SDS011;7459;53.590;10.062;2023-01-08T06:26:29;4.18;;;1.50;;
14736;SDS011;7459;53.590;10.062;2023-01-08T06:28:55;7.10;;;1.40;;
14736;SDS011;7459;53.590;10.062;2023-01-08T06:31:20;4.47;;;1.70;;
14736;SDS011;7459;53.590;10.062;2023-01-08T06:33:46;4.13;;;1.20;;
14736;SDS011;7459;53.590;10.062;2023-01-08T06:36:12;4.47;;;1.40;;
14736;SDS011;7459;53.590;10.062;2023-01-08T06:38:37;5.65;;;1.40;;
14736;SDS011;7459;53.590;10.062;2023-01-08T06:41:04;4.43;;;1.90;;
14736;SDS011;7459;53.590;10.062;2023-01-08T06:43:32;4.35;;;1.92;;
14736;SDS011;7459;53.590;10.062;2023-01-08T06:45:58;5.57;;;1.98;;
14736;SDS011;7459;53.590;10.062;2023-01-08T06:48:24;3.90;;;1.87;;
14736;SDS011;7459;53.590;10.062;2023-01-08T06:50:50;5.00;;;1.52;;
14736;SDS011;7459;53.590;10.062;2023-01-08T06:53:16;4.35;;;1.63;;
14736;SDS011;7459;53.590;10.062;2023-01-08T06:55:42;4.68;;;1.92;;
14736;SDS011;7459;53.590;10.062;2023-01-08T06:58:08;7.00;;;2.40;;
14736;SDS011;7459;53.590;10.062;2023-01-08T07:00:38;4.80;;;2.00;;
14736;SDS011;7459;53.590;10.062;2023-01-08T07:03:04;5.10;;;1.93;;
14736;SDS011;7459;53.590;10.062;2023-01-08T07:05:30;4.75;;;1.80;;
14736;SDS011;7459;53.590;10.062;2023-01-08T07:07:56;4.38;;;2.10;;
14736;SDS011;7459;53.590;10.062;2023-01-08T07:10:21;4.55;;;1.80;;
14736;SDS011;7459;53.590;10.062;2023-01-08T07:12:47;5.00;;;1.90;;
14736;SDS011;7459;53.590;10.062;2023-01-08T07:15:13;4.07;;;1.58;;
14736;SDS011;7459;53.590;10.062;2023-01-08T07:17:39;4.35;;;2.00;;
14736;SDS011;7459;53.590;10.062;2023-01-08T07:20:05;4.30;;;1.80;;
14736;SDS011;7459;53.590;10.062;2023-01-08T07:22:33;3.83;;;1.27;;
14736;SDS011;7459;53.590;10.062;2023-01-08T07:24:59;4.43;;;2.03;;
14736;SDS011;7459;53.590;10.062;2023-01-08T07:27:24;4.35;;;1.60;;
14736;SDS011;7459;53.590;10.062;2023-01-08T07:29:50;4.53;;;1.70;;
14736;SDS011;7459;53.590;10.062;2023-01-08T07:32:16;5.27;;;2.10;;
14736;SDS011;7459;53.590;10.062;2023-01-08T07:34:42;4.50;;;1.85;;
14736;SDS011;7459;53.590;10.062;2023-01-08T07:37:07;4.20;;;1.70;;
14736;SDS011;7459;53.590;10.062;2023-01-08T07:39:33;5.15;;;2.00;;
14736;SDS011;7459;53.590;10.062;2023-01-08T07:41:59;4.37;;;1.80;;
14736;SDS011;7459;53.590;10.062;2023-01-08T07:44:24;4.87;;;1.97;;
14736;SDS011;7459;53.590;10.062;2023-01-08T07:46:50;6.30;;;2.40;;
14736;SDS011;7459;53.590;10.062;2023-01-08T07:49:16;4.13;;;1.90;;
14736;SDS011;7459;53.590;10.062;2023-01-08T07:51:41;6.47;;;2.50;;
14736;SDS011;7459;53.590;10.062;2023-01-08T07:54:07;4.90;;;1.97;;
14736;SDS011;7459;53.590;10.062;2023-01-08T07:56:33;5.15;;;1.95;;
14736;SDS011;7459;53.590;10.062;2023-01-08T07:58:58;4.63;;;1.80;;
14736;SDS011;7459;53.590;10.062;2023-01-08T08:01:24;6.32;;;1.80;;
14736;SDS011;7459;53.590;10.062;2023-01-08T08:03:50;4.83;;;2.10;;
14736;SDS011;7459;53.590;10.062;2023-01-08T08:06:16;4.30;;;2.03;;
14736;SDS011;7459;53.590;10.062;2023-01-08T08:08:42;4.78;;;1.85;;
14736;SDS011;7459;53.590;10.062;2023-01-08T08:11:08;5.57;;;1.93;;
14736;SDS011;7459;53.590;10.062;2023-01-08T08:13:34;4.43;;;1.63;;
14736;SDS011;7459;53.590;10.062;2023-01-08T08:16:00;5.32;;;1.75;;
14736;SDS011;7459;53.590;10.062;2023-01-08T08:18:28;6.78;;;1.98;;
14736;SDS011;7459;53.590;10.062;2023-01-08T08:20:54;4.78;;;1.80;;
14736;SDS011;7459;53.590;10.062;2023-01-08T08:23:19;5.05;;;2.05;;
14736;SDS011;7459;53.590;10.062;2023-01-08T08:25:45;5.03;;;1.75;;
14736;SDS011;7459;53.590;10.062;2023-01-08T08:28:11;5.20;;;1.93;;
14736;SDS011;7459;53.590;10.062;2023-01-08T08:30:37;4.80;;;2.10;;
14736;SDS011;7459;53.590;10.062;2023-01-08T08:33:04;5.18;;;2.10;;
14736;SDS011;7459;53.590;10.062;2023-01-08T08:35:31;5.80;;;2.53;;
14736;SDS011;7459;53.590;10.062;2023-01-08T08:37:58;4.25;;;1.85;;
14736;SDS011;7459;53.590;10.062;2023-01-08T08:40:24;7.22;;;2.40;;
14736;SDS011;7459;53.590;10.062;2023-01-08T08:42:58;7.13;;;2.17;;
14736;SDS011;7459;53.590;10.062;2023-01-08T08:45:27;4.63;;;2.15;;
14736;SDS011;7459;53.590;10.062;2023-01-08T08:47:53;7.00;;;2.17;;
14736;SDS011;7459;53.590;10.062;2023-01-08T08:50:19;4.82;;;1.92;;
14736;SDS011;7459;53.590;10.062;2023-01-08T08:52:46;4.85;;;2.10;;
14736;SDS011;7459;53.590;10.062;2023-01-08T08:55:12;4.70;;;2.08;;
14736;SDS011;7459;53.590;10.062;2023-01-08T08:57:41;5.75;;;2.05;;
14736;SDS011;7459;53.590;10.062;2023-01-08T09:00:11;5.53;;;2.42;;
14736;SDS011;7459;53.590;10.062;2023-01-08T09:02:38;4.15;;;1.88;;
14736;SDS011;7459;53.590;10.062;2023-01-08T09:05:04;5.47;;;2.50;;
14736;SDS011;7459;53.590;10.062;2023-01-08T09:07:30;4.32;;;1.88;;
14736;SDS011;7459;53.590;10.062;2023-01-08T09:09:56;4.47;;;1.73;;
14736;SDS011;7459;53.590;10.062;2023-01-08T09:12:21;8.98;;;1.98;;
14736;SDS011;7459;53.590;10.062;2023-01-08T09:14:47;5.03;;;1.90;;
14736;SDS011;7459;53.590;10.062;2023-01-08T09:17:14;4.68;;;1.90;;
14736;SDS011;7459;53.590;10.062;2023-01-08T09:19:39;5.47;;;2.23;;
14736;SDS011;7459;53.590;10.062;2023-01-08T09:22:05;5.00;;;2.55;;
14736;SDS011;7459;53.590;10.062;2023-01-08T09:24:31;3.60;;;1.60;;
14736;SDS011;7459;53.590;10.062;2023-01-08T09:26:57;4.90;;;1.70;;
14736;SDS011;7459;53.590;10.062;2023-01-08T09:29:23;4.97;;;1.85;;
14736;SDS011;7459;53.590;10.062;2023-01-08T09:31:49;4.57;;;1.80;;
14736;SDS011;7459;53.590;10.062;2023-01-08T09:34:15;10.63;;;2.38;;
14736;SDS011;7459;53.590;10.062;2023-01-08T09:36:41;5.53;;;1.50;;
14736;SDS011;7459;53.590;10.062;2023-01-08T09:39:06;5.63;;;1.73;;
14736;SDS011;7459;53.590;10.062;2023-01-08T09:41:33;5.63;;;1.58;;
14736;SDS011;7459;53.590;10.062;2023-01-08T09:44:05;4.75;;;1.60;;
14736;SDS011;7459;53.590;10.062;2023-01-08T09:46:32;4.85;;;1.63;;
14736;SDS011;7459;53.590;10.062;2023-01-08T09:49:00;3.95;;;1.70;;
14736;SDS011;7459;53.590;10.062;2023-01-08T09:51:34;4.60;;;1.70;;
14736;SDS011;7459;53.590;10.062;2023-01-08T09:54:02;4.25;;;1.58;;
14736;SDS011;7459;53.590;10.062;2023-01-08T09:56:32;6.03;;;1.80;;
14736;SDS011;7459;53.590;10.062;2023-01-08T09:59:00;4.45;;;1.60;;
14736;SDS011;7459;53.590;10.062;2023-01-08T10:01:28;4.15;;;1.50;;
14736;SDS011;7459;53.590;10.062;2023-01-08T10:04:09;4.80;;;1.80;;
14736;SDS011;7459;53.590;10.062;2023-01-08T10:06:45;4.80;;;1.42;;
14736;SDS011;7459;53.590;10.062;2023-01-08T10:09:16;3.67;;;1.40;;
14736;SDS011;7459;53.590;10.062;2023-01-08T10:11:50;4.50;;;1.38;;
14736;SDS011;7459;53.590;10.062;2023-01-08T10:14:27;4.35;;;1.40;;
14736;SDS011;7459;53.590;10.062;2023-01-08T10:16:57;3.67;;;1.27;;
14736;SDS011;7459;53.590;10.062;2023-01-08T10:19:29;4.07;;;1.55;;
14736;SDS011;7459;53.590;10.062;2023-01-08T10:21:55;4.18;;;1.63;;
14736;SDS011;7459;53.590;10.062;2023-01-08T10:24:34;4.63;;;1.27;;
14736;SDS011;7459;53.590;10.062;2023-01-08T10:27:04;3.33;;;1.20;;
14736;SDS011;7459;53.590;10.062;2023-01-08T10:29:31;4.32;;;1.27;;
14736;SDS011;7459;53.590;10.062;2023-01-08T10:31:57;3.25;;;1.30;;
14736;SDS011;7459;53.590;10.062;2023-01-08T10:34:38;3.15;;;1.42;;
14736;SDS011;7459;53.590;10.062;2023-01-08T10:37:22;4.30;;;1.60;;
14736;SDS011;7459;53.590;10.062;2023-01-08T10:40:05;3.95;;;1.30;;
14736;SDS011;7459;53.590;10.062;2023-01-08T10:42:48;5.20;;;1.30;;
14736;SDS011;7459;53.590;10.062;2023-01-08T10:45:17;3.92;;;1.30;;
14736;SDS011;7459;53.590;10.062;2023-01-08T10:47:51;4.25;;;1.27;;
14736;SDS011;7459;53.590;10.062;2023-01-08T10:50:27;3.90;;;1.50;;
14736;SDS011;7459;53.590;10.062;2023-01-08T10:52:59;2.75;;;1.20;;
14736;SDS011;7459;53.590;10.062;2023-01-08T10:55:29;5.70;;;1.38;;
14736;SDS011;7459;53.590;10.062;2023-01-08T10:58:01;4.25;;;1.42;;
14736;SDS011;7459;53.590;10.062;2023-01-08T11:00:33;4.68;;;1.05;;
14736;SDS011;7459;53.590;10.062;2023-01-08T11:03:04;3.05;;;1.02;;
14736;SDS011;7459;53.590;10.062;2023-01-08T11:05:36;4.63;;;1.00;;
14736;SDS011;7459;53.590;10.062;2023-01-08T11:08:07;3.15;;;1.48;;
14736;SDS011;7459;53.590;10.062;2023-01-08T11:10:41;3.92;;;1.50;;
14736;SDS011;7459;53.590;10.062;2023-01-08T11:13:16;3.80;;;1.17;;
14736;SDS011;7459;53.590;10.062;2023-01-08T11:15:43;4.20;;;1.10;;
14736;SDS011;7459;53.590;10.062;2023-01-08T11:18:17;4.35;;;1.38;;
14736;SDS011;7459;53.590;10.062;2023-01-08T11:20:51;4.30;;;1.23;;
14736;SDS011;7459;53.590;10.062;2023-01-08T11:23:20;4.20;;;1.33;;
14736;SDS011;7459;53.590;10.062;2023-01-08T11:25:51;4.65;;;1.27;;
14736;SDS011;7459;53.590;10.062;2023-01-08T11:28:36;4.03;;;1.40;;
14736;SDS011;7459;53.590;10.062;2023-01-08T11:31:34;3.67;;;1.35;;
14736;SDS011;7459;53.590;10.062;2023-01-08T11:34:05;3.70;;;1.30;;
14736;SDS011;7459;53.590;10.062;2023-01-08T11:36:51;3.17;;;1.17;;
14736;SDS011;7459;53.590;10.062;2023-01-08T11:39:25;5.90;;;1.77;;
14736;SDS011;7459;53.590;10.062;2023-01-08T11:42:01;4.73;;;1.90;;
14736;SDS011;7459;53.590;10.062;2023-01-08T11:47:26;5.47;;;1.67;;
14736;SDS011;7459;53.590;10.062;2023-01-08T11:50:28;4.50;;;1.83;;
14736;SDS011;7459;53.590;10.062;2023-01-08T11:53:55;5.38;;;1.77;;
14736;SDS011;7459;53.590;10.062;2023-01-08T12:05:22;5.70;;;1.97;;
14736;SDS011;7459;53.590;10.062;2023-01-08T12:32:53;3.23;;;0.50;;
14736;SDS011;7459;53.590;10.062;2023-01-08T12:35:33;3.38;;;0.68;;
14736;SDS011;7459;53.590;10.062;2023-01-08T12:38:20;3.45;;;0.85;;
14736;SDS011;7459;53.590;10.062;2023-01-08T12:46:23;2.30;;;0.70;;
14736;SDS011;7459;53.590;10.062;2023-01-08T12:48:53;2.47;;;0.70;;
14736;SDS011;7459;53.590;10.062;2023-01-08T12:51:30;3.47;;;0.90;;
14736;SDS011;7459;53.590;10.062;2023-01-08T12:54:13;4.78;;;0.80;;
14736;SDS011;7459;53.590;10.062;2023-01-08T12:57:12;3.20;;;1.08;;
14736;SDS011;7459;53.590;10.062;2023-01-08T13:00:17;5.30;;;0.80;;
14736;SDS011;7459;53.590;10.062;2023-01-08T13:03:09;2.67;;;0.98;;
14736;SDS011;7459;53.590;10.062;2023-01-08T13:05:39;3.50;;;0.95;;
14736;SDS011;7459;53.590;10.062;2023-01-08T13:08:19;3.80;;;1.00;;
14736;SDS011;7459;53.590;10.062;2023-01-08T13:11:01;5.55;;;1.23;;
14736;SDS011;7459;53.590;10.062;2023-01-08T13:18:56;3.67;;;1.33;;
14736;SDS011;7459;53.590;10.062;2023-01-08T13:29:52;3.30;;;1.10;;
14736;SDS011;7459;53.590;10.062;2023-01-08T13:32:25;4.57;;;1.00;;
14736;SDS011;7459;53.590;10.062;2023-01-08T13:37:40;2.97;;;1.07;;
14736;SDS011;7459;53.590;10.062;2023-01-08T13:43:12;5.30;;;1.30;;
14736;SDS011;7459;53.590;10.062;2023-01-08T13:48:26;3.72;;;0.93;;
14736;SDS011;7459;53.590;10.062;2023-01-08T13:50:54;2.93;;;0.80;;
14736;SDS011;7459;53.590;10.062;2023-01-08T13:53:21;2.75;;;0.85;;
14736;SDS011;7459;53.590;10.062;2023-01-08T13:55:53;2.75;;;0.73;;
14736;SDS011;7459;53.590;10.062;2023-01-08T13:58:26;2.63;;;0.80;;
14736;SDS011;7459;53.590;10.062;2023-01-08T14:00:58;2.10;;;0.68;;
14736;SDS011;7459;53.590;10.062;2023-01-08T14:05:52;4.60;;;1.02;;
14736;SDS011;7459;53.590;10.062;2023-01-08T14:08:37;2.67;;;0.73;;
14736;SDS011;7459;53.590;10.062;2023-01-08T14:11:27;3.67;;;0.70;;
14736;SDS011;7459;53.590;10.062;2023-01-08T14:14:00;6.30;;;0.88;;
14736;SDS011;7459;53.590;10.062;2023-01-08T14:16:26;3.83;;;0.70;;
14736;SDS011;7459;53.590;10.062;2023-01-08T14:18:52;4.60;;;0.90;;
14736;SDS011;7459;53.590;10.062;2023-01-08T14:21:24;2.60;;;0.85;;
14736;SDS011;7459;53.590;10.062;2023-01-08T14:23:50;4.03;;;1.05;;
14736;SDS011;7459;53.590;10.062;2023-01-08T14:26:34;3.40;;;0.70;;
14736;SDS011;7459;53.590;10.062;2023-01-08T14:29:14;3.53;;;0.70;;
14736;SDS011;7459;53.590;10.062;2023-01-08T14:31:45;5.82;;;1.23;;
14736;SDS011;7459;53.590;10.062;2023-01-08T14:34:13;2.60;;;0.40;;
14736;SDS011;7459;53.590;10.062;2023-01-08T14:36:42;1.73;;;0.50;;
14736;SDS011;7459;53.590;10.062;2023-01-08T14:39:09;3.45;;;0.77;;
14736;SDS011;7459;53.590;10.062;2023-01-08T14:42:08;4.27;;;0.70;;
14736;SDS011;7459;53.590;10.062;2023-01-08T14:45:16;5.53;;;0.60;;
14736;SDS011;7459;53.590;10.062;2023-01-08T14:48:11;7.70;;;0.88;;
14736;SDS011;7459;53.590;10.062;2023-01-08T14:50:59;5.68;;;1.25;;
14736;SDS011;7459;53.590;10.062;2023-01-08T14:53:34;4.75;;;0.82;;
14736;SDS011;7459;53.590;10.062;2023-01-08T14:56:14;4.67;;;0.43;;
14736;SDS011;7459;53.590;10.062;2023-01-08T14:58:54;4.15;;;0.57;;
14736;SDS011;7459;53.590;10.062;2023-01-08T15:01:22;5.00;;;0.52;;
14736;SDS011;7459;53.590;10.062;2023-01-08T15:03:52;4.40;;;0.47;;
14736;SDS011;7459;53.590;10.062;2023-01-08T15:06:38;3.75;;;0.57;;
14736;SDS011;7459;53.590;10.062;2023-01-08T15:11:56;9.73;;;1.13;;
14736;SDS011;7459;53.590;10.062;2023-01-08T15:14:26;7.22;;;0.50;;
14736;SDS011;7459;53.590;10.062;2023-01-08T15:16:58;3.75;;;0.50;;
14736;SDS011;7459;53.590;10.062;2023-01-08T15:19:37;3.38;;;0.90;;
14736;SDS011;7459;53.590;10.062;2023-01-08T15:22:14;3.80;;;0.60;;
14736;SDS011;7459;53.590;10.062;2023-01-08T15:24:44;5.55;;;0.60;;
14736;SDS011;7459;53.590;10.062;2023-01-08T15:27:24;5.38;;;0.80;;
14736;SDS011;7459;53.590;10.062;2023-01-08T15:29:51;5.45;;;0.75;;
14736;SDS011;7459;53.590;10.062;2023-01-08T15:32:36;4.50;;;1.30;;
14736;SDS011;7459;53.590;10.062;2023-01-08T15:35:12;2.27;;;0.47;;
14736;SDS011;7459;53.590;10.062;2023-01-08T15:37:40;3.85;;;0.47;;
14736;SDS011;7459;53.590;10.062;2023-01-08T15:40:06;4.55;;;0.70;;
14736;SDS011;7459;53.590;10.062;2023-01-08T15:42:35;5.47;;;0.68;;
14736;SDS011;7459;53.590;10.062;2023-01-08T15:45:20;6.32;;;1.05;;
14736;SDS011;7459;53.590;10.062;2023-01-08T15:47:56;4.90;;;0.60;;
14736;SDS011;7459;53.590;10.062;2023-01-08T15:50:22;4.97;;;0.70;;
14736;SDS011;7459;53.590;10.062;2023-01-08T15:52:50;8.10;;;1.20;;
14736;SDS011;7459;53.590;10.062;2023-01-08T15:55:16;6.32;;;0.98;;
14736;SDS011;7459;53.590;10.062;2023-01-08T15:57:47;5.70;;;1.37;;
14736;SDS011;7459;53.590;10.062;2023-01-08T16:00:14;8.10;;;1.00;;
14736;SDS011;7459;53.590;10.062;2023-01-08T16:02:43;6.40;;;1.17;;
14736;SDS011;7459;53.590;10.062;2023-01-08T16:05:11;7.07;;;0.88;;
14736;SDS011;7459;53.590;10.062;2023-01-08T16:07:38;5.07;;;0.82;;
14736;SDS011;7459;53.590;10.062;2023-01-08T16:10:04;4.77;;;1.00;;
14736;SDS011;7459;53.590;10.062;2023-01-08T16:12:31;4.55;;;0.95;;
14736;SDS011;7459;53.590;10.062;2023-01-08T16:14:56;6.27;;;1.87;;
14736;SDS011;7459;53.590;10.062;2023-01-08T16:17:22;6.72;;;1.65;;
14736;SDS011;7459;53.590;10.062;2023-01-08T16:19:48;7.23;;;1.07;;
14736;SDS011;7459;53.590;10.062;2023-01-08T16:22:13;5.75;;;1.40;;
14736;SDS011;7459;53.590;10.062;2023-01-08T16:24:39;6.40;;;1.27;;
14736;SDS011;7459;53.590;10.062;2023-01-08T16:27:05;8.25;;;1.30;;
14736;SDS011;7459;53.590;10.062;2023-01-08T16:29:32;8.70;;;1.30;;
14736;SDS011;7459;53.590;10.062;2023-01-08T16:31:58;5.77;;;1.37;;
14736;SDS011;7459;53.590;10.062;2023-01-08T16:34:23;6.30;;;1.10;;
14736;SDS011;7459;53.590;10.062;2023-01-08T16:36:50;6.40;;;1.77;;